Nearby METAR Reports

 

KDLS - The Dalles, Oregon, USA
Distance from station: NNE 2mi, 3km
Updated: Mon, 14-Jun-2021 5:53am PDT
Overcast
Overcast
 Wind from NNW
Wind: NNW 7 mph , 11 km/h
Temperature: 63°F , 17°C
Dew Point: 57°F , 14°C
Humidity: 83%
Barometer: 29.94 inHg , 1013.9 hPa
Clouds: Overcast
Visibility: 10 miles , 16 km
Cloud details: Overcast 6500 ft
2021/06/14 12:53 KDLS 141253Z AUTO 33006KT 10SM OVC065 17/14 A2994 RMK AO2 SLP139 T01670139
KTTD - Troutdale, Oregon, USA
Distance from station: W 60mi, 96km
Updated: Mon, 14-Jun-2021 5:53am PDT
Light rain, Overcast
Light rain, Overcast
 Wind from calm
Wind: Calm
Temperature: 61°F , 16°C
Dew Point: 57°F , 14°C
Humidity: 88%
Barometer: 29.96 inHg , 1014.6 hPa
Summary: Light rain
Clouds: Overcast
Visibility: 10 miles , 16 km
Cloud details: Mostly cloudy 2700 ft
Overcast 7500 ft
2021/06/14 12:53 KTTD 141253Z AUTO 00000KT 10SM -RA BKN027 OVC075 16/14 A2996 RMK AO2 RAB53 SLP144 P0000 T01610144
 
KPDX - Portland, Oregon, USA
Distance from station: W 69mi, 111km
Updated: Mon, 14-Jun-2021 5:53am PDT
Light rain, Overcast
Light rain, Overcast
 Wind from SE
Wind: SE 6 mph , 9 km/h
Temperature: 61°F , 16°C
Dew Point: 59°F , 15°C
Humidity: 94%
Barometer: 29.96 inHg , 1014.6 hPa
Summary: Light rain
Clouds: Overcast
Visibility: 10 miles , 16 km
Cloud details: Few Clouds 400 ft
Mostly cloudy 1500 ft
Overcast 2200 ft
2021/06/14 12:53 KPDX 141253Z 14005KT 10SM -RA FEW004 BKN015 OVC022 16/15 A2996 RMK AO2 RAE01B52 SLP145 P0000 T01610150
KVUO - Vancouver, Washington, USA
Distance from station: W 71mi, 114km
Updated: Mon, 14-Jun-2021 5:53am PDT
Overcast
Overcast
 Wind from ESE
Wind: ESE 5 mph , 7 km/h
Temperature: 61°F , 16°C
Dew Point: 57°F , 14°C
Humidity: 88%
Barometer: 29.96 inHg , 1014.6 hPa
Clouds: Overcast
Visibility: 8 miles , 13 km
Cloud details: Overcast 600 ft
2021/06/14 12:53 KVUO 141253Z AUTO 12004KT 8SM OVC006 16/14 A2996 RMK AO2 RAB34E45 CIG 003V010 SLP144 P0000 T01610144
 
KYKM - Yakima, Washington, USA
Distance from station: NNE 74mi, 120km
Updated: Mon, 14-Jun-2021 5:53am PDT
Light rain, Overcast
Light rain, Overcast
 Wind from calm
Wind: Calm
Temperature: 61°F , 16°C
Dew Point: 52°F , 11°C
Humidity: 72%
Barometer: 29.96 inHg , 1014.6 hPa
Summary: Light rain
Clouds: Overcast
Visibility: 10 miles , 16 km
Cloud details: Overcast 7000 ft
2021/06/14 12:53 KYKM 141253Z 00000KT 10SM -RA OVC070 16/11 A2996 RMK AO2 RAE00B49 SLP140 P0000 T01610111
KUAO - Aurora, Oregon, USA
Distance from station: WSW 80mi, 129km
Updated: Mon, 14-Jun-2021 5:53am PDT
Light rain, Overcast
Light rain, Overcast
 Wind from calm
Wind: Calm
Temperature: 61°F , 16°C
Dew Point: 61°F , 16°C
Humidity: 100%
Barometer: 29.97 inHg , 1014.9 hPa
Summary: Light rain
Clouds: Overcast
Visibility: 10 miles , 16 km
Cloud details: Few Clouds 500 ft
Mostly cloudy 2400 ft
Overcast 3100 ft
2021/06/14 12:53 KUAO 141253Z AUTO 00000KT 10SM -RA FEW005 BKN024 OVC031 16/16 A2997 RMK AO2 RAE09B31 SLP147 P0002 T01560156
 
KSPB - Scappoose, Oregon, USA
Distance from station: W 82mi, 132km
Updated: Mon, 14-Jun-2021 5:53am PDT
Overcast
Overcast
 Wind from calm
Wind: Calm
Temperature: 63°F , 17°C
Dew Point: 59°F , 15°C
Humidity: 88%
Barometer: 29.95 inHg , 1014.2 hPa
Clouds: Overcast
Visibility: 10 miles , 16 km
Cloud details: Overcast 500 ft
2021/06/14 12:53 KSPB 141253Z AUTO 00000KT 10SM OVC005 17/15 A2995 RMK AO2 SLP141 T01670150
KHIO - Hillsboro/Portld, Oregon, USA
Distance from station: W 85mi, 137km
Updated: Mon, 14-Jun-2021 5:53am PDT
Light rain, Mist, Overcast
Light rain, Mist, Overcast
 Wind from W
Wind: W 3 mph , 6 km/h
Temperature: 59°F , 15°C
Dew Point: 59°F , 15°C
Humidity: 100%
Barometer: 29.96 inHg , 1014.6 hPa
Summary: Light rain, Mist
Clouds: Overcast
Visibility: 2 1/2 miles , 4 km
Cloud details: Mostly cloudy 300 ft
Overcast 700 ft
2021/06/14 12:53 KHIO 141253Z 27003KT 2 1/2SM -RA BR BKN003 OVC007 15/15 A2996 RMK AO2 SLP143 P0000 T01500150
 
KKLS - Kelso Longveiw, Washington, USA
Distance from station: WNW 90mi, 145km
Updated: Mon, 14-Jun-2021 5:56am PDT
Light rain, Overcast
Light rain, Overcast
 Wind from calm
Wind: Calm
Temperature: 59°F , 15°C
Dew Point: 57°F , 14°C
Humidity: 94%
Barometer: 29.97 inHg , 1014.9 hPa
Summary: Light rain
Clouds: Overcast
Visibility: 10 miles , 16 km
Cloud details: Few Clouds 800 ft
Mostly cloudy 1600 ft
Overcast 2400 ft
2021/06/14 12:56 KKLS 141256Z AUTO 00000KT 10SM -RA FEW008 BKN016 OVC024 15/14 A2997 RMK AO2 RAB09 SLP154 P0001 T01500139
KRDM - Redmond, Oregon, USA
Distance from station: S 93mi, 149km
Updated: Mon, 14-Jun-2021 5:56am PDT
Overcast
Overcast
 Wind from WNW
Wind: WNW 6 mph , 9 km/h
Temperature: 57°F , 14°C
Dew Point: 48°F , 9°C
Humidity: 72%
Barometer: 29.98 inHg , 1015.2 hPa
Clouds: Overcast
Visibility: 10 miles , 16 km
Cloud details: Mostly cloudy 5000 ft
Overcast 9000 ft
2021/06/14 12:56 KRDM 141256Z 30005KT 10SM BKN050 OVC090 14/09 A2998 RMK AO2 SLP129 T01440089
 
KHRI - Hermiston, Oregon, USA
Distance from station: E 94mi, 151km
Updated: Mon, 14-Jun-2021 5:53am PDT
Clear
Clear
 Wind from ESE
Wind: ESE 5 mph , 7 km/h
Temperature: 57°F , 14°C
Dew Point: 52°F , 11°C
Humidity: 82%
Barometer: 29.95 inHg , 1014.2 hPa
Clouds: Clear
Visibility: 10 miles , 16 km
2021/06/14 12:53 KHRI 141253Z AUTO 12004KT 10SM CLR 14/11 A2995 RMK AO2 SLP135 T01440106 $
KMMV - Mcminnville, Oregon, USA
Distance from station: WSW 98mi, 158km
Updated: Mon, 14-Jun-2021 5:53am PDT
Overcast
Overcast
 Wind from WSW
Wind: WSW 3 mph , 6 km/h
Temperature: 57°F , 14°C
Dew Point: 55°F , 13°C
Humidity: 94%
Barometer: 29.95 inHg , 1014.2 hPa
Clouds: Overcast
Visibility: 10 miles , 16 km
Cloud details: Few Clouds 2800 ft
Overcast 10000 ft
2021/06/14 12:53 KMMV 141253Z AUTO 25003KT 10SM FEW028 OVC100 14/13 A2995 RMK AO2 RAE45 SLP142 P0001 T01390133
 
KSLE - Salem, Oregon, USA
Distance from station: WSW 100mi, 161km
Updated: Mon, 14-Jun-2021 5:56am PDT
Light rain, Overcast
Light rain, Overcast
 Wind from calm
Wind: Calm
Temperature: 61°F , 16°C
Dew Point: 57°F , 14°C
Humidity: 88%
Barometer: 29.95 inHg , 1014.2 hPa
Summary: Light rain
Clouds: Overcast
Visibility: 10 miles , 16 km
Cloud details: Overcast 1700 ft
2021/06/14 12:56 KSLE 141256Z AUTO 00000KT 10SM -RA OVC017 16/14 A2995 RMK AO2 RAB1157E30B47 SLP142 P0002 T01610139
KBDN - Bend, Oregon, USA
Distance from station: S 103mi, 166km
Updated: Mon, 14-Jun-2021 5:55am PDT
Mostly cloudy
Mostly cloudy
 Wind from NW
Wind: NW 3 mph , 6 km/h
Temperature: 57°F , 14°C
Dew Point: 48°F , 9°C
Humidity: 72%
Barometer: 30.00 inHg , 1015.9 hPa
Clouds: Mostly cloudy
Visibility: 10 miles , 16 km
Cloud details: Few Clouds 5000 ft
Partly cloudy 6500 ft
Mostly cloudy 7500 ft
2021/06/14 12:55 KBDN 141255Z AUTO 31003KT 10SM FEW050 SCT065 BKN075 14/09 A3000 RMK AO2
 
KELN - Ellensburg, Washington, USA
Distance from station: NNE 104mi, 168km
Updated: Mon, 14-Jun-2021 5:53am PDT
Light rain, Overcast
Light rain, Overcast
 Wind from NW
Wind: NW 7 mph , 11 km/h
Temperature: 57°F , 14°C
Dew Point: 52°F , 11°C
Humidity: 82%
Barometer: 29.97 inHg , 1014.9 hPa
Summary: Light rain
Clouds: Overcast
Visibility: 9 miles , 14 km
Cloud details: Mostly cloudy 5500 ft
Overcast 7000 ft
2021/06/14 12:53 KELN 141253Z AUTO 31006KT 9SM -RA BKN055 OVC070 14/11 A2997 RMK AO2 SLP144 P0006 T01390111
KPSC - Pasco, Washington, USA
Distance from station: ENE 110mi, 177km
Updated: Mon, 14-Jun-2021 5:53am PDT
Clear
Clear
 Wind from E
Wind: E 6 mph , 9 km/h
Temperature: 63°F , 17°C
Dew Point: 54°F , 12°C
Humidity: 73%
Barometer: 29.93 inHg , 1013.5 hPa
Clouds: Clear
Visibility: 10 miles , 16 km
2021/06/14 12:53 KPSC 141253Z 09005KT 10SM CLR 17/12 A2993 RMK AO2 SLP133 T01720122
 
KPDT - Pendleton, Oregon, USA
Distance from station: E 114mi, 183km
Updated: Mon, 14-Jun-2021 5:53am PDT
Clear
Clear
 Wind from S
Wind: S 6 mph , 9 km/h
Temperature: 57°F , 14°C
Dew Point: 48°F , 9°C
Humidity: 72%
Barometer: 29.97 inHg , 1014.9 hPa
Clouds: Clear
Visibility: 10 miles , 16 km
2021/06/14 12:53 KPDT 141253Z 17005KT 10SM CLR 14/09 A2997 RMK AO2 SLP133 T01440094
KCLS - Chehalis Central, Washington, USA
Distance from station: NW 115mi, 184km
Updated: Mon, 14-Jun-2021 5:55am PDT
Overcast
Overcast
 Wind from calm
Wind: Calm
Temperature: 59°F , 15°C
Dew Point: 59°F , 15°C
Humidity: 100%
Barometer: 29.96 inHg , 1014.6 hPa
Clouds: Overcast
Visibility: 10 miles , 16 km
Cloud details: Few Clouds 1000 ft
Partly cloudy 1700 ft
Overcast 2500 ft
2021/06/14 12:55 KCLS 141255Z AUTO 00000KT 10SM FEW010 SCT017 OVC025 15/15 A2996 RMK AO2
 
KPLU - Puyallup/Thun, Washington, USA
Distance from station: NNW 117mi, 188km
Updated: Mon, 14-Jun-2021 5:55am PDT
Overcast
Overcast
 Wind from calm
Wind: Calm
Temperature: 57°F , 14°C
Dew Point: 57°F , 14°C
Humidity: 100%
Barometer: 29.97 inHg , 1014.9 hPa
Clouds: Overcast
Visibility: 10 miles , 16 km
Cloud details: Overcast 600 ft
2021/06/14 12:55 KPLU 141255Z AUTO 00000KT 10SM OVC006 14/14 A2997 RMK AO2
KCVO - Corvallis Muni A, Oregon, USA
Distance from station: WNW 167mi, 269km
Updated: Mon, 14-Jun-2021 5:56am PDT
Overcast
Overcast
 Wind from calm
Wind: Calm
Temperature: 57°F , 14°C
Dew Point: 57°F , 14°C
Humidity: 100%
Barometer: 29.98 inHg , 1015.2 hPa
Clouds: Overcast
Visibility: 10 miles , 16 km
Cloud details: Few Clouds 1100 ft
Mostly cloudy 2900 ft
Overcast 6000 ft
2021/06/14 12:56 KCVO 141256Z AUTO 00000KT 10SM FEW011 BKN029 OVC060 14/14 A2998 RMK AO2 RAE10 SLP153 P0000 T01440139
 
KEUG - Eugene, Oregon, USA
Distance from station: W 193mi, 310km
Updated: Mon, 14-Jun-2021 5:54am PDT
Overcast
Overcast
 Wind from WSW
Wind: WSW 5 mph , 7 km/h
Temperature: 59°F , 15°C
Dew Point: 55°F , 13°C
Humidity: 88%
Barometer: 29.99 inHg , 1015.6 hPa
Clouds: Overcast
Visibility: 10 miles , 16 km
Cloud details: Mostly cloudy 2000 ft
Mostly cloudy 5500 ft
Overcast 8500 ft
2021/06/14 12:54 KEUG 141254Z 24004KT 10SM BKN020 BKN055 OVC085 15/13 A2999 RMK AO2 RAB00E51 SLP152 P0001 T01500128
KRBG - Roseburg, Oregon, USA
Distance from station: WSW 196mi, 315km
Updated: Mon, 14-Jun-2021 5:53am PDT
Light rain, Mist, Overcast
Light rain, Mist, Overcast
 Wind from SE
Wind: SE 3 mph , 6 km/h
Temperature: 57°F , 14°C
Dew Point: 55°F , 13°C
Humidity: 94%
Barometer: 29.98 inHg , 1015.2 hPa
Summary: Light rain, Mist
Clouds: Overcast
Visibility: 5 miles , 8 km
Cloud details: Few Clouds 500 ft
Mostly cloudy 1100 ft
Overcast 2600 ft
2021/06/14 12:53 KRBG 141253Z AUTO 14003KT 5SM -RA BR FEW005 BKN011 OVC026 14/13 A2998 RMK AO2 SLP152 P0009 T01440133
 
KLKV - Lakeview, Oregon, USA
Distance from station: SSE 239mi, 385km
Updated: Mon, 14-Jun-2021 5:53am PDT
Clear
Clear
 Wind from SSE
Wind: SSE 8 mph , 13 km/h
Temperature: 45°F , 7°C
Wind Chill: 41°F , 5°C
Dew Point: 39°F , 4°C
Humidity: 81%
Barometer: 30.06 inHg , 1017.9 hPa
Clouds: Clear
Visibility: 10 miles , 16 km
2021/06/14 12:53 KLKV 141253Z AUTO 15007KT 10SM CLR 07/04 A3006 RMK AO2 SLP152 T00670044
KMFR - Medford, Oregon, USA
Distance from station: WSW 241mi, 388km
Updated: Mon, 14-Jun-2021 5:53am PDT
Overcast
Overcast
 Wind from WNW
Wind: WNW 8 mph , 13 km/h
Temperature: 61°F , 16°C
Dew Point: 55°F , 13°C
Humidity: 83%
Barometer: 29.95 inHg , 1014.2 hPa
Clouds: Overcast
Visibility: 10 miles , 16 km
Cloud details: Mostly cloudy 2000 ft
Overcast 2500 ft
2021/06/14 12:53 KMFR 141253Z 30007KT 10SM BKN020 OVC025 16/13 A2995 RMK AO2 RAB11E25 SLP134 P0000 T01560128
 
KBNO - Burns, Oregon, USA
Distance from station: ESE 249mi, 280km
Updated: Mon, 14-Jun-2021 5:53am PDT
Clear
Clear
 Wind from NNE
Wind: NNE 5 mph , 7 km/h
Temperature: 46°F , 8°C
Wind Chill: 44°F , 7°C
Dew Point: 39°F , 4°C
Humidity: 76%
Barometer: 30.02 inHg , 1016.6 hPa
Clouds: Clear
Visibility: 10 miles , 16 km
2021/06/14 12:53 KBNO 141253Z AUTO 02004KT 10SM CLR 08/04 A3002 RMK AO2 SLP132 T00830039
KLMT - Klamath Falls, Oregon, USA
Distance from station: SSW 266mi, 428km
Updated: Mon, 14-Jun-2021 5:53am PDT
Overcast
Overcast
 Wind from SE
Wind: SE 12 mph , 19 km/h
Temperature: 57°F , 14°C
Dew Point: 45°F , 7°C
Humidity: 63%
Barometer: 30.00 inHg , 1015.9 hPa
Clouds: Overcast
Visibility: 10 miles , 16 km
Cloud details: Overcast 7000 ft
2021/06/14 12:53 KLMT 141253Z AUTO 14010KT 10SM OVC070 14/07 A3000 RMK AO2 SLP117 T01390067